sensor_id;sensor_type;location;lat;lon;timestamp;P1;durP1;ratioP1;P2;durP2;ratioP2
52540;SDS011;56003;48.556;9.370;2022-10-16T00:01:31;0.40;;;0.30;;
52540;SDS011;56003;48.556;9.370;2022-10-16T00:03:57;0.40;;;0.30;;
52540;SDS011;56003;48.556;9.370;2022-10-16T00:06:24;0.40;;;0.30;;
52540;SDS011;56003;48.556;9.370;2022-10-16T00:08:51;0.40;;;0.20;;
52540;SDS011;56003;48.556;9.370;2022-10-16T00:11:21;0.40;;;0.30;;
52540;SDS011;56003;48.556;9.370;2022-10-16T00:13:48;0.40;;;0.30;;
52540;SDS011;56003;48.556;9.370;2022-10-16T00:16:20;0.40;;;0.30;;
52540;SDS011;56003;48.556;9.370;2022-10-16T00:18:45;0.40;;;0.30;;
52540;SDS011;56003;48.556;9.370;2022-10-16T00:21:15;0.40;;;0.20;;
52540;SDS011;56003;48.556;9.370;2022-10-16T00:23:52;0.40;;;0.30;;
52540;SDS011;56003;48.556;9.370;2022-10-16T00:26:24;0.83;;;0.30;;
52540;SDS011;56003;48.556;9.370;2022-10-16T00:28:55;0.40;;;0.23;;
52540;SDS011;56003;48.556;9.370;2022-10-16T00:31:22;0.40;;;0.30;;
52540;SDS011;56003;48.556;9.370;2022-10-16T00:33:48;0.40;;;0.40;;
52540;SDS011;56003;48.556;9.370;2022-10-16T00:36:21;0.40;;;0.30;;
52540;SDS011;56003;48.556;9.370;2022-10-16T00:38:52;0.40;;;0.30;;
52540;SDS011;56003;48.556;9.370;2022-10-16T00:41:23;0.40;;;0.30;;
52540;SDS011;56003;48.556;9.370;2022-10-16T00:48:54;0.40;;;0.30;;
52540;SDS011;56003;48.556;9.370;2022-10-16T00:51:23;0.50;;;0.30;;
52540;SDS011;56003;48.556;9.370;2022-10-16T00:53:54;0.40;;;0.20;;
52540;SDS011;56003;48.556;9.370;2022-10-16T00:56:29;0.40;;;0.30;;
52540;SDS011;56003;48.556;9.370;2022-10-16T00:58:55;0.60;;;0.50;;
52540;SDS011;56003;48.556;9.370;2022-10-16T01:01:20;0.50;;;0.40;;
52540;SDS011;56003;48.556;9.370;2022-10-16T01:03:46;0.40;;;0.30;;
52540;SDS011;56003;48.556;9.370;2022-10-16T01:06:19;0.40;;;0.20;;
52540;SDS011;56003;48.556;9.370;2022-10-16T01:08:52;0.40;;;0.30;;
52540;SDS011;56003;48.556;9.370;2022-10-16T01:11:33;0.40;;;0.23;;
52540;SDS011;56003;48.556;9.370;2022-10-16T01:17:20;0.40;;;0.30;;
52540;SDS011;56003;48.556;9.370;2022-10-16T01:20:05;0.40;;;0.30;;
52540;SDS011;56003;48.556;9.370;2022-10-16T01:28:27;0.40;;;0.30;;
52540;SDS011;56003;48.556;9.370;2022-10-16T01:31:01;1.10;;;0.50;;
52540;SDS011;56003;48.556;9.370;2022-10-16T01:33:40;0.40;;;0.20;;
52540;SDS011;56003;48.556;9.370;2022-10-16T01:36:13;0.40;;;0.30;;
52540;SDS011;56003;48.556;9.370;2022-10-16T01:38:47;0.40;;;0.20;;
52540;SDS011;56003;48.556;9.370;2022-10-16T01:41:27;0.40;;;0.40;;
52540;SDS011;56003;48.556;9.370;2022-10-16T01:44:04;0.40;;;0.30;;
52540;SDS011;56003;48.556;9.370;2022-10-16T01:46:35;0.50;;;0.40;;
52540;SDS011;56003;48.556;9.370;2022-10-16T01:49:05;0.40;;;0.30;;
52540;SDS011;56003;48.556;9.370;2022-10-16T01:51:34;0.40;;;0.30;;
52540;SDS011;56003;48.556;9.370;2022-10-16T01:54:07;0.40;;;0.27;;
52540;SDS011;56003;48.556;9.370;2022-10-16T01:56:34;0.40;;;0.30;;
52540;SDS011;56003;48.556;9.370;2022-10-16T01:59:11;0.40;;;0.30;;
52540;SDS011;56003;48.556;9.370;2022-10-16T02:01:42;0.60;;;0.40;;
52540;SDS011;56003;48.556;9.370;2022-10-16T02:04:16;0.63;;;0.30;;
52540;SDS011;56003;48.556;9.370;2022-10-16T02:06:45;0.50;;;0.30;;
52540;SDS011;56003;48.556;9.370;2022-10-16T02:09:14;0.40;;;0.40;;
52540;SDS011;56003;48.556;9.370;2022-10-16T02:11:43;0.40;;;0.30;;
52540;SDS011;56003;48.556;9.370;2022-10-16T02:14:09;0.50;;;0.50;;
52540;SDS011;56003;48.556;9.370;2022-10-16T02:16:35;0.40;;;0.20;;
52540;SDS011;56003;48.556;9.370;2022-10-16T02:19:03;0.50;;;0.30;;
52540;SDS011;56003;48.556;9.370;2022-10-16T02:27:01;0.40;;;0.30;;
52540;SDS011;56003;48.556;9.370;2022-10-16T02:29:37;0.70;;;0.40;;
52540;SDS011;56003;48.556;9.370;2022-10-16T02:32:09;0.40;;;0.30;;
52540;SDS011;56003;48.556;9.370;2022-10-16T02:34:37;0.40;;;0.20;;
52540;SDS011;56003;48.556;9.370;2022-10-16T02:37:05;0.63;;;0.60;;
52540;SDS011;56003;48.556;9.370;2022-10-16T02:39:32;1.43;;;0.40;;
52540;SDS011;56003;48.556;9.370;2022-10-16T02:42:14;0.50;;;0.43;;
52540;SDS011;56003;48.556;9.370;2022-10-16T02:44:45;0.40;;;0.30;;
52540;SDS011;56003;48.556;9.370;2022-10-16T02:47:13;2.00;;;1.63;;
52540;SDS011;56003;48.556;9.370;2022-10-16T02:49:38;0.90;;;0.73;;
52540;SDS011;56003;48.556;9.370;2022-10-16T02:52:07;0.40;;;0.40;;
52540;SDS011;56003;48.556;9.370;2022-10-16T02:54:32;0.40;;;0.30;;
52540;SDS011;56003;48.556;9.370;2022-10-16T02:57:01;0.47;;;0.40;;
52540;SDS011;56003;48.556;9.370;2022-10-16T02:59:26;1.23;;;1.03;;
52540;SDS011;56003;48.556;9.370;2022-10-16T03:01:54;0.60;;;0.33;;
52540;SDS011;56003;48.556;9.370;2022-10-16T03:04:20;0.83;;;0.40;;
52540;SDS011;56003;48.556;9.370;2022-10-16T03:06:45;0.40;;;0.30;;
52540;SDS011;56003;48.556;9.370;2022-10-16T03:09:13;0.40;;;0.37;;
52540;SDS011;56003;48.556;9.370;2022-10-16T03:11:44;0.40;;;0.40;;
52540;SDS011;56003;48.556;9.370;2022-10-16T03:14:12;0.40;;;0.30;;
52540;SDS011;56003;48.556;9.370;2022-10-16T03:16:38;0.50;;;0.30;;
52540;SDS011;56003;48.556;9.370;2022-10-16T03:19:06;0.87;;;0.40;;
52540;SDS011;56003;48.556;9.370;2022-10-16T03:21:32;0.40;;;0.30;;
52540;SDS011;56003;48.556;9.370;2022-10-16T03:24:00;0.40;;;0.33;;
52540;SDS011;56003;48.556;9.370;2022-10-16T03:26:25;0.40;;;0.40;;
52540;SDS011;56003;48.556;9.370;2022-10-16T03:28:56;0.40;;;0.30;;
52540;SDS011;56003;48.556;9.370;2022-10-16T03:31:22;0.40;;;0.30;;
52540;SDS011;56003;48.556;9.370;2022-10-16T03:33:50;0.43;;;0.43;;
52540;SDS011;56003;48.556;9.370;2022-10-16T03:36:16;0.40;;;0.30;;
52540;SDS011;56003;48.556;9.370;2022-10-16T03:38:42;0.40;;;0.30;;
52540;SDS011;56003;48.556;9.370;2022-10-16T03:41:10;0.50;;;0.47;;
52540;SDS011;56003;48.556;9.370;2022-10-16T03:43:36;0.60;;;0.40;;
52540;SDS011;56003;48.556;9.370;2022-10-16T03:46:04;0.50;;;0.37;;
52540;SDS011;56003;48.556;9.370;2022-10-16T03:48:41;0.40;;;0.30;;
52540;SDS011;56003;48.556;9.370;2022-10-16T03:51:09;0.40;;;0.30;;
52540;SDS011;56003;48.556;9.370;2022-10-16T03:53:35;0.40;;;0.30;;
52540;SDS011;56003;48.556;9.370;2022-10-16T03:56:01;0.40;;;0.30;;
52540;SDS011;56003;48.556;9.370;2022-10-16T03:58:31;0.57;;;0.57;;
52540;SDS011;56003;48.556;9.370;2022-10-16T04:00:59;0.40;;;0.20;;
52540;SDS011;56003;48.556;9.370;2022-10-16T04:03:42;0.40;;;0.30;;
52540;SDS011;56003;48.556;9.370;2022-10-16T04:06:11;0.50;;;0.40;;
52540;SDS011;56003;48.556;9.370;2022-10-16T04:08:38;0.50;;;0.33;;
52540;SDS011;56003;48.556;9.370;2022-10-16T04:11:04;1.40;;;0.43;;
52540;SDS011;56003;48.556;9.370;2022-10-16T04:13:30;0.40;;;0.40;;
52540;SDS011;56003;48.556;9.370;2022-10-16T04:15:58;0.63;;;0.50;;
52540;SDS011;56003;48.556;9.370;2022-10-16T04:18:23;0.40;;;0.30;;
52540;SDS011;56003;48.556;9.370;2022-10-16T04:20:52;0.50;;;0.40;;
52540;SDS011;56003;48.556;9.370;2022-10-16T04:23:20;0.50;;;0.43;;
52540;SDS011;56003;48.556;9.370;2022-10-16T04:25:47;0.40;;;0.30;;
52540;SDS011;56003;48.556;9.370;2022-10-16T04:28:15;0.40;;;0.30;;
52540;SDS011;56003;48.556;9.370;2022-10-16T04:30:43;0.60;;;0.60;;
52540;SDS011;56003;48.556;9.370;2022-10-16T04:33:09;0.40;;;0.30;;
52540;SDS011;56003;48.556;9.370;2022-10-16T04:35:42;0.40;;;0.30;;
52540;SDS011;56003;48.556;9.370;2022-10-16T04:38:10;0.40;;;0.30;;
52540;SDS011;56003;48.556;9.370;2022-10-16T04:40:42;0.40;;;0.30;;
52540;SDS011;56003;48.556;9.370;2022-10-16T04:43:07;1.07;;;0.63;;
52540;SDS011;56003;48.556;9.370;2022-10-16T04:45:36;0.73;;;0.40;;
52540;SDS011;56003;48.556;9.370;2022-10-16T04:48:01;0.40;;;0.30;;
52540;SDS011;56003;48.556;9.370;2022-10-16T04:50:33;0.40;;;0.30;;
52540;SDS011;56003;48.556;9.370;2022-10-16T04:53:00;0.80;;;0.47;;
52540;SDS011;56003;48.556;9.370;2022-10-16T04:55:29;0.50;;;0.30;;
52540;SDS011;56003;48.556;9.370;2022-10-16T04:57:54;0.50;;;0.43;;
52540;SDS011;56003;48.556;9.370;2022-10-16T05:00:20;0.40;;;0.30;;
52540;SDS011;56003;48.556;9.370;2022-10-16T05:02:47;0.50;;;0.30;;
52540;SDS011;56003;48.556;9.370;2022-10-16T05:05:17;0.40;;;0.30;;
52540;SDS011;56003;48.556;9.370;2022-10-16T05:07:45;0.40;;;0.40;;
52540;SDS011;56003;48.556;9.370;2022-10-16T05:10:11;0.40;;;0.30;;
52540;SDS011;56003;48.556;9.370;2022-10-16T05:12:39;0.83;;;0.83;;
52540;SDS011;56003;48.556;9.370;2022-10-16T05:15:04;0.50;;;0.47;;
52540;SDS011;56003;48.556;9.370;2022-10-16T05:17:30;0.50;;;0.37;;
52540;SDS011;56003;48.556;9.370;2022-10-16T05:19:59;0.40;;;0.30;;
52540;SDS011;56003;48.556;9.370;2022-10-16T05:22:28;0.50;;;0.30;;
52540;SDS011;56003;48.556;9.370;2022-10-16T05:24:53;0.40;;;0.40;;
52540;SDS011;56003;48.556;9.370;2022-10-16T05:27:19;0.60;;;0.53;;
52540;SDS011;56003;48.556;9.370;2022-10-16T05:29:50;0.50;;;0.43;;
52540;SDS011;56003;48.556;9.370;2022-10-16T05:32:16;0.67;;;0.67;;
52540;SDS011;56003;48.556;9.370;2022-10-16T05:34:43;0.40;;;0.30;;
52540;SDS011;56003;48.556;9.370;2022-10-16T05:37:09;0.57;;;0.57;;
52540;SDS011;56003;48.556;9.370;2022-10-16T05:39:46;0.50;;;0.40;;
52540;SDS011;56003;48.556;9.370;2022-10-16T05:42:11;1.00;;;0.40;;
52540;SDS011;56003;48.556;9.370;2022-10-16T05:44:39;0.40;;;0.20;;
52540;SDS011;56003;48.556;9.370;2022-10-16T05:47:07;1.40;;;1.30;;
52540;SDS011;56003;48.556;9.370;2022-10-16T05:49:41;0.40;;;0.30;;
52540;SDS011;56003;48.556;9.370;2022-10-16T05:52:07;0.40;;;0.40;;
52540;SDS011;56003;48.556;9.370;2022-10-16T05:54:33;0.40;;;0.20;;
52540;SDS011;56003;48.556;9.370;2022-10-16T05:56:58;0.50;;;0.30;;
52540;SDS011;56003;48.556;9.370;2022-10-16T05:59:26;0.50;;;0.30;;
52540;SDS011;56003;48.556;9.370;2022-10-16T06:01:54;0.70;;;0.50;;
52540;SDS011;56003;48.556;9.370;2022-10-16T06:04:29;1.73;;;0.70;;
52540;SDS011;56003;48.556;9.370;2022-10-16T06:07:10;0.40;;;0.30;;
52540;SDS011;56003;48.556;9.370;2022-10-16T06:09:41;0.50;;;0.50;;
52540;SDS011;56003;48.556;9.370;2022-10-16T06:12:07;0.40;;;0.30;;
52540;SDS011;56003;48.556;9.370;2022-10-16T06:14:32;0.50;;;0.40;;
52540;SDS011;56003;48.556;9.370;2022-10-16T06:17:01;0.50;;;0.30;;
52540;SDS011;56003;48.556;9.370;2022-10-16T06:19:32;0.40;;;0.30;;
52540;SDS011;56003;48.556;9.370;2022-10-16T06:21:58;0.40;;;0.30;;
52540;SDS011;56003;48.556;9.370;2022-10-16T06:24:35;1.37;;;0.40;;
52540;SDS011;56003;48.556;9.370;2022-10-16T06:27:09;0.80;;;0.40;;
52540;SDS011;56003;48.556;9.370;2022-10-16T06:29:36;0.70;;;0.40;;
52540;SDS011;56003;48.556;9.370;2022-10-16T06:32:05;0.50;;;0.40;;
52540;SDS011;56003;48.556;9.370;2022-10-16T06:34:31;0.40;;;0.30;;
52540;SDS011;56003;48.556;9.370;2022-10-16T06:36:59;0.40;;;0.30;;
52540;SDS011;56003;48.556;9.370;2022-10-16T06:39:24;0.40;;;0.30;;
52540;SDS011;56003;48.556;9.370;2022-10-16T06:41:55;0.40;;;0.30;;
52540;SDS011;56003;48.556;9.370;2022-10-16T06:44:21;0.60;;;0.37;;
52540;SDS011;56003;48.556;9.370;2022-10-16T06:46:57;0.40;;;0.40;;
52540;SDS011;56003;48.556;9.370;2022-10-16T06:49:25;0.70;;;0.53;;
52540;SDS011;56003;48.556;9.370;2022-10-16T06:51:56;0.40;;;0.30;;
52540;SDS011;56003;48.556;9.370;2022-10-16T06:54:25;0.40;;;0.37;;
52540;SDS011;56003;48.556;9.370;2022-10-16T06:56:54;0.40;;;0.30;;
52540;SDS011;56003;48.556;9.370;2022-10-16T06:59:20;0.40;;;0.20;;
52540;SDS011;56003;48.556;9.370;2022-10-16T07:01:49;0.50;;;0.30;;
52540;SDS011;56003;48.556;9.370;2022-10-16T07:04:20;0.50;;;0.30;;
52540;SDS011;56003;48.556;9.370;2022-10-16T07:06:46;0.40;;;0.40;;
52540;SDS011;56003;48.556;9.370;2022-10-16T07:09:14;0.40;;;0.30;;
52540;SDS011;56003;48.556;9.370;2022-10-16T07:11:46;0.40;;;0.30;;
52540;SDS011;56003;48.556;9.370;2022-10-16T07:14:18;0.50;;;0.37;;
52540;SDS011;56003;48.556;9.370;2022-10-16T07:16:55;1.17;;;0.93;;
52540;SDS011;56003;48.556;9.370;2022-10-16T07:19:25;0.40;;;0.30;;
52540;SDS011;56003;48.556;9.370;2022-10-16T07:21:53;0.50;;;0.30;;
52540;SDS011;56003;48.556;9.370;2022-10-16T07:24:51;0.40;;;0.30;;
52540;SDS011;56003;48.556;9.370;2022-10-16T07:27:19;2.00;;;0.40;;
52540;SDS011;56003;48.556;9.370;2022-10-16T07:29:48;0.80;;;0.50;;
52540;SDS011;56003;48.556;9.370;2022-10-16T07:32:14;0.50;;;0.43;;
52540;SDS011;56003;48.556;9.370;2022-10-16T07:34:46;0.50;;;0.40;;
52540;SDS011;56003;48.556;9.370;2022-10-16T07:37:17;0.53;;;0.30;;
52540;SDS011;56003;48.556;9.370;2022-10-16T07:39:45;0.70;;;0.50;;
52540;SDS011;56003;48.556;9.370;2022-10-16T07:42:10;0.63;;;0.50;;
52540;SDS011;56003;48.556;9.370;2022-10-16T07:45:02;2.20;;;0.67;;
52540;SDS011;56003;48.556;9.370;2022-10-16T07:47:36;0.40;;;0.30;;
52540;SDS011;56003;48.556;9.370;2022-10-16T07:50:02;0.40;;;0.30;;
52540;SDS011;56003;48.556;9.370;2022-10-16T07:52:37;0.50;;;0.30;;
52540;SDS011;56003;48.556;9.370;2022-10-16T07:55:02;0.40;;;0.30;;
52540;SDS011;56003;48.556;9.370;2022-10-16T07:57:28;0.40;;;0.30;;
52540;SDS011;56003;48.556;9.370;2022-10-16T07:59:54;0.40;;;0.30;;
52540;SDS011;56003;48.556;9.370;2022-10-16T08:02:27;0.67;;;0.50;;
52540;SDS011;56003;48.556;9.370;2022-10-16T08:04:52;0.50;;;0.30;;
52540;SDS011;56003;48.556;9.370;2022-10-16T08:07:18;0.40;;;0.30;;
52540;SDS011;56003;48.556;9.370;2022-10-16T08:09:48;0.50;;;0.40;;
52540;SDS011;56003;48.556;9.370;2022-10-16T08:12:16;0.50;;;0.50;;
52540;SDS011;56003;48.556;9.370;2022-10-16T08:14:42;0.70;;;0.60;;
52540;SDS011;56003;48.556;9.370;2022-10-16T08:17:07;0.60;;;0.40;;
52540;SDS011;56003;48.556;9.370;2022-10-16T08:19:33;2.10;;;0.40;;
52540;SDS011;56003;48.556;9.370;2022-10-16T08:21:59;0.40;;;0.30;;
52540;SDS011;56003;48.556;9.370;2022-10-16T08:24:25;0.43;;;0.37;;
52540;SDS011;56003;48.556;9.370;2022-10-16T08:26:53;0.40;;;0.30;;
52540;SDS011;56003;48.556;9.370;2022-10-16T08:29:19;0.70;;;0.50;;
52540;SDS011;56003;48.556;9.370;2022-10-16T08:31:44;0.40;;;0.20;;
52540;SDS011;56003;48.556;9.370;2022-10-16T08:34:10;0.80;;;0.43;;
52540;SDS011;56003;48.556;9.370;2022-10-16T08:36:35;0.50;;;0.40;;
52540;SDS011;56003;48.556;9.370;2022-10-16T08:39:00;0.70;;;0.50;;
52540;SDS011;56003;48.556;9.370;2022-10-16T08:41:29;0.40;;;0.30;;
52540;SDS011;56003;48.556;9.370;2022-10-16T08:44:15;0.50;;;0.30;;
52540;SDS011;56003;48.556;9.370;2022-10-16T08:49:16;0.97;;;0.50;;
52540;SDS011;56003;48.556;9.370;2022-10-16T08:51:42;0.50;;;0.40;;
52540;SDS011;56003;48.556;9.370;2022-10-16T08:56:49;0.40;;;0.40;;
52540;SDS011;56003;48.556;9.370;2022-10-16T08:59:15;0.40;;;0.30;;
52540;SDS011;56003;48.556;9.370;2022-10-16T09:01:44;0.50;;;0.50;;
52540;SDS011;56003;48.556;9.370;2022-10-16T09:06:59;0.50;;;0.50;;
52540;SDS011;56003;48.556;9.370;2022-10-16T09:19:56;1.23;;;0.50;;
52540;SDS011;56003;48.556;9.370;2022-10-16T09:22:25;1.27;;;0.47;;
52540;SDS011;56003;48.556;9.370;2022-10-16T09:24:54;0.40;;;0.30;;
52540;SDS011;56003;48.556;9.370;2022-10-16T09:27:24;0.53;;;0.50;;
52540;SDS011;56003;48.556;9.370;2022-10-16T09:29:51;0.60;;;0.40;;
52540;SDS011;56003;48.556;9.370;2022-10-16T09:32:19;1.10;;;0.70;;
52540;SDS011;56003;48.556;9.370;2022-10-16T09:34:48;0.50;;;0.40;;
52540;SDS011;56003;48.556;9.370;2022-10-16T09:37:18;0.50;;;0.40;;
52540;SDS011;56003;48.556;9.370;2022-10-16T09:39:49;0.50;;;0.50;;
52540;SDS011;56003;48.556;9.370;2022-10-16T09:42:17;0.40;;;0.30;;
52540;SDS011;56003;48.556;9.370;2022-10-16T09:44:47;0.40;;;0.30;;
52540;SDS011;56003;48.556;9.370;2022-10-16T09:47:16;0.60;;;0.50;;
52540;SDS011;56003;48.556;9.370;2022-10-16T09:52:24;1.00;;;0.40;;
52540;SDS011;56003;48.556;9.370;2022-10-16T09:54:59;0.40;;;0.40;;
52540;SDS011;56003;48.556;9.370;2022-10-16T09:57:26;0.40;;;0.30;;
52540;SDS011;56003;48.556;9.370;2022-10-16T09:59:53;0.97;;;0.50;;
52540;SDS011;56003;48.556;9.370;2022-10-16T10:02:29;0.60;;;0.53;;
52540;SDS011;56003;48.556;9.370;2022-10-16T10:04:56;0.40;;;0.30;;
52540;SDS011;56003;48.556;9.370;2022-10-16T10:07:30;0.50;;;0.30;;
52540;SDS011;56003;48.556;9.370;2022-10-16T10:09:59;0.40;;;0.30;;
52540;SDS011;56003;48.556;9.370;2022-10-16T10:12:44;0.60;;;0.40;;
52540;SDS011;56003;48.556;9.370;2022-10-16T10:15:12;0.50;;;0.30;;
52540;SDS011;56003;48.556;9.370;2022-10-16T10:17:45;0.50;;;0.43;;
52540;SDS011;56003;48.556;9.370;2022-10-16T10:22:47;0.50;;;0.47;;
52540;SDS011;56003;48.556;9.370;2022-10-16T10:27:57;0.50;;;0.50;;
52540;SDS011;56003;48.556;9.370;2022-10-16T10:36:21;0.50;;;0.40;;
52540;SDS011;56003;48.556;9.370;2022-10-16T10:39:17;1.80;;;0.70;;
52540;SDS011;56003;48.556;9.370;2022-10-16T10:55:46;0.40;;;0.30;;
52540;SDS011;56003;48.556;9.370;2022-10-16T10:58:23;0.50;;;0.50;;
52540;SDS011;56003;48.556;9.370;2022-10-16T11:06:36;0.40;;;0.40;;
52540;SDS011;56003;48.556;9.370;2022-10-16T11:14:29;0.97;;;0.87;;
52540;SDS011;56003;48.556;9.370;2022-10-16T11:17:13;0.50;;;0.50;;
52540;SDS011;56003;48.556;9.370;2022-10-16T11:19:48;0.40;;;0.30;;
52540;SDS011;56003;48.556;9.370;2022-10-16T11:41:37;0.50;;;0.50;;
52540;SDS011;56003;48.556;9.370;2022-10-16T11:49:34;0.50;;;0.47;;
52540;SDS011;56003;48.556;9.370;2022-10-16T11:57:34;0.40;;;0.40;;
52540;SDS011;56003;48.556;9.370;2022-10-16T12:00:08;0.60;;;0.60;;
52540;SDS011;56003;48.556;9.370;2022-10-16T12:02:58;0.57;;;0.57;;
52540;SDS011;56003;48.556;9.370;2022-10-16T12:08:27;0.50;;;0.50;;
52540;SDS011;56003;48.556;9.370;2022-10-16T12:11:06;0.40;;;0.40;;
52540;SDS011;56003;48.556;9.370;2022-10-16T12:14:16;0.70;;;0.60;;
52540;SDS011;56003;48.556;9.370;2022-10-16T12:16:56;0.57;;;0.55;;
52540;SDS011;56003;48.556;9.370;2022-10-16T12:19:25;0.63;;;0.63;;
52540;SDS011;56003;48.556;9.370;2022-10-16T12:21:58;0.65;;;0.65;;
52540;SDS011;56003;48.556;9.370;2022-10-16T12:30:00;0.70;;;0.57;;
52540;SDS011;56003;48.556;9.370;2022-10-16T12:32:31;0.50;;;0.50;;
52540;SDS011;56003;48.556;9.370;2022-10-16T12:34:59;0.50;;;0.50;;
52540;SDS011;56003;48.556;9.370;2022-10-16T12:37:31;0.83;;;0.80;;
52540;SDS011;56003;48.556;9.370;2022-10-16T12:40:04;0.40;;;0.40;;
52540;SDS011;56003;48.556;9.370;2022-10-16T12:42:48;0.45;;;0.45;;
52540;SDS011;56003;48.556;9.370;2022-10-16T12:45:24;0.77;;;0.68;;
52540;SDS011;56003;48.556;9.370;2022-10-16T12:47:52;0.50;;;0.50;;
52540;SDS011;56003;48.556;9.370;2022-10-16T12:50:26;0.70;;;0.70;;
52540;SDS011;56003;48.556;9.370;2022-10-16T12:53:03;0.70;;;0.50;;
52540;SDS011;56003;48.556;9.370;2022-10-16T12:55:46;0.40;;;0.40;;
52540;SDS011;56003;48.556;9.370;2022-10-16T13:14:43;0.50;;;0.50;;
52540;SDS011;56003;48.556;9.370;2022-10-16T13:17:13;0.50;;;0.50;;
52540;SDS011;56003;48.556;9.370;2022-10-16T13:22:29;0.50;;;0.50;;
52540;SDS011;56003;48.556;9.370;2022-10-16T13:25:12;0.50;;;0.40;;
52540;SDS011;56003;48.556;9.370;2022-10-16T13:27:52;0.65;;;0.65;;
52540;SDS011;56003;48.556;9.370;2022-10-16T13:30:22;0.50;;;0.50;;
52540;SDS011;56003;48.556;9.370;2022-10-16T13:32:56;0.60;;;0.60;;
52540;SDS011;56003;48.556;9.370;2022-10-16T13:35:29;1.10;;;0.50;;
52540;SDS011;56003;48.556;9.370;2022-10-16T13:38:32;1.23;;;0.85;;
52540;SDS011;56003;48.556;9.370;2022-10-16T13:41:00;0.50;;;0.50;;
52540;SDS011;56003;48.556;9.370;2022-10-16T13:46:01;0.77;;;0.77;;
52540;SDS011;56003;48.556;9.370;2022-10-16T13:48:27;0.70;;;0.60;;
52540;SDS011;56003;48.556;9.370;2022-10-16T13:51:04;0.50;;;0.50;;
52540;SDS011;56003;48.556;9.370;2022-10-16T13:53:40;0.50;;;0.43;;
52540;SDS011;56003;48.556;9.370;2022-10-16T13:56:14;0.85;;;0.80;;
52540;SDS011;56003;48.556;9.370;2022-10-16T13:58:41;0.80;;;0.80;;
52540;SDS011;56003;48.556;9.370;2022-10-16T14:04:08;0.55;;;0.55;;
52540;SDS011;56003;48.556;9.370;2022-10-16T14:06:36;0.77;;;0.50;;
52540;SDS011;56003;48.556;9.370;2022-10-16T14:09:06;0.60;;;0.60;;
52540;SDS011;56003;48.556;9.370;2022-10-16T14:11:41;0.70;;;0.70;;
52540;SDS011;56003;48.556;9.370;2022-10-16T14:14:11;0.50;;;0.50;;
52540;SDS011;56003;48.556;9.370;2022-10-16T14:16:38;0.50;;;0.50;;
52540;SDS011;56003;48.556;9.370;2022-10-16T14:19:13;0.87;;;0.57;;
52540;SDS011;56003;48.556;9.370;2022-10-16T14:21:50;0.60;;;0.50;;
52540;SDS011;56003;48.556;9.370;2022-10-16T14:24:22;0.60;;;0.60;;
52540;SDS011;56003;48.556;9.370;2022-10-16T14:26:52;0.40;;;0.40;;
52540;SDS011;56003;48.556;9.370;2022-10-16T14:29:20;0.83;;;0.83;;
52540;SDS011;56003;48.556;9.370;2022-10-16T14:34:31;0.57;;;0.57;;
52540;SDS011;56003;48.556;9.370;2022-10-16T14:39:53;0.70;;;0.70;;
52540;SDS011;56003;48.556;9.370;2022-10-16T14:42:20;0.50;;;0.50;;
52540;SDS011;56003;48.556;9.370;2022-10-16T14:44:51;2.67;;;1.13;;
52540;SDS011;56003;48.556;9.370;2022-10-16T14:47:19;0.60;;;0.60;;
52540;SDS011;56003;48.556;9.370;2022-10-16T14:49:50;0.50;;;0.50;;
52540;SDS011;56003;48.556;9.370;2022-10-16T14:52:16;0.90;;;0.57;;
52540;SDS011;56003;48.556;9.370;2022-10-16T14:54:41;0.77;;;0.77;;
52540;SDS011;56003;48.556;9.370;2022-10-16T14:57:15;0.80;;;0.63;;
52540;SDS011;56003;48.556;9.370;2022-10-16T14:59:43;0.60;;;0.50;;
52540;SDS011;56003;48.556;9.370;2022-10-16T15:02:18;0.60;;;0.60;;
52540;SDS011;56003;48.556;9.370;2022-10-16T15:05:10;0.50;;;0.50;;
52540;SDS011;56003;48.556;9.370;2022-10-16T15:07:42;0.60;;;0.50;;
52540;SDS011;56003;48.556;9.370;2022-10-16T15:10:08;0.60;;;0.50;;
52540;SDS011;56003;48.556;9.370;2022-10-16T15:12:34;0.50;;;0.50;;
52540;SDS011;56003;48.556;9.370;2022-10-16T15:14:59;0.60;;;0.60;;
52540;SDS011;56003;48.556;9.370;2022-10-16T15:17:25;0.57;;;0.50;;
52540;SDS011;56003;48.556;9.370;2022-10-16T15:19:50;2.40;;;1.37;;
52540;SDS011;56003;48.556;9.370;2022-10-16T15:22:16;0.67;;;0.40;;
52540;SDS011;56003;48.556;9.370;2022-10-16T15:24:42;1.20;;;0.90;;
52540;SDS011;56003;48.556;9.370;2022-10-16T15:27:07;2.33;;;1.77;;
52540;SDS011;56003;48.556;9.370;2022-10-16T15:29:33;1.80;;;0.87;;
52540;SDS011;56003;48.556;9.370;2022-10-16T15:31:58;3.43;;;1.83;;
52540;SDS011;56003;48.556;9.370;2022-10-16T15:34:23;2.60;;;2.40;;
52540;SDS011;56003;48.556;9.370;2022-10-16T15:36:49;2.60;;;1.60;;
52540;SDS011;56003;48.556;9.370;2022-10-16T15:39:16;2.53;;;2.10;;
52540;SDS011;56003;48.556;9.370;2022-10-16T15:41:43;1.47;;;1.20;;
52540;SDS011;56003;48.556;9.370;2022-10-16T15:44:10;1.10;;;1.00;;
52540;SDS011;56003;48.556;9.370;2022-10-16T15:46:35;1.47;;;1.33;;
52540;SDS011;56003;48.556;9.370;2022-10-16T15:49:02;0.90;;;0.67;;
52540;SDS011;56003;48.556;9.370;2022-10-16T15:51:27;0.97;;;0.70;;
52540;SDS011;56003;48.556;9.370;2022-10-16T15:53:55;1.67;;;1.43;;
52540;SDS011;56003;48.556;9.370;2022-10-16T15:56:21;0.80;;;0.80;;
52540;SDS011;56003;48.556;9.370;2022-10-16T15:58:48;1.27;;;1.03;;
52540;SDS011;56003;48.556;9.370;2022-10-16T16:01:13;1.00;;;0.87;;
52540;SDS011;56003;48.556;9.370;2022-10-16T16:03:39;2.17;;;2.00;;
52540;SDS011;56003;48.556;9.370;2022-10-16T16:06:08;1.30;;;1.20;;
52540;SDS011;56003;48.556;9.370;2022-10-16T16:08:35;2.03;;;1.83;;
52540;SDS011;56003;48.556;9.370;2022-10-16T16:11:09;1.90;;;1.30;;
52540;SDS011;56003;48.556;9.370;2022-10-16T16:13:35;1.73;;;1.63;;
52540;SDS011;56003;48.556;9.370;2022-10-16T16:16:04;0.80;;;0.57;;
52540;SDS011;56003;48.556;9.370;2022-10-16T16:18:34;1.43;;;0.77;;
52540;SDS011;56003;48.556;9.370;2022-10-16T16:21:00;1.20;;;1.20;;
52540;SDS011;56003;48.556;9.370;2022-10-16T16:23:25;1.03;;;0.93;;
52540;SDS011;56003;48.556;9.370;2022-10-16T16:26:07;1.03;;;1.03;;
52540;SDS011;56003;48.556;9.370;2022-10-16T16:28:39;1.00;;;0.80;;
52540;SDS011;56003;48.556;9.370;2022-10-16T16:31:05;1.77;;;1.07;;
52540;SDS011;56003;48.556;9.370;2022-10-16T16:33:31;2.53;;;1.63;;
52540;SDS011;56003;48.556;9.370;2022-10-16T16:36:00;2.27;;;1.20;;
52540;SDS011;56003;48.556;9.370;2022-10-16T16:38:27;0.70;;;0.70;;
52540;SDS011;56003;48.556;9.370;2022-10-16T16:40:53;1.17;;;0.70;;
52540;SDS011;56003;48.556;9.370;2022-10-16T16:43:19;0.93;;;0.67;;
52540;SDS011;56003;48.556;9.370;2022-10-16T16:45:48;0.80;;;0.77;;
52540;SDS011;56003;48.556;9.370;2022-10-16T16:48:13;1.00;;;1.00;;
52540;SDS011;56003;48.556;9.370;2022-10-16T16:50:39;1.00;;;1.00;;
52540;SDS011;56003;48.556;9.370;2022-10-16T16:53:04;0.67;;;0.67;;
52540;SDS011;56003;48.556;9.370;2022-10-16T16:55:29;1.33;;;0.93;;
52540;SDS011;56003;48.556;9.370;2022-10-16T16:57:54;0.70;;;0.63;;
52540;SDS011;56003;48.556;9.370;2022-10-16T17:00:21;1.10;;;1.10;;
52540;SDS011;56003;48.556;9.370;2022-10-16T17:02:50;0.70;;;0.60;;
52540;SDS011;56003;48.556;9.370;2022-10-16T17:05:15;0.90;;;0.90;;
52540;SDS011;56003;48.556;9.370;2022-10-16T17:07:41;0.97;;;0.77;;
52540;SDS011;56003;48.556;9.370;2022-10-16T17:10:08;0.50;;;0.37;;
52540;SDS011;56003;48.556;9.370;2022-10-16T17:12:34;0.50;;;0.50;;
52540;SDS011;56003;48.556;9.370;2022-10-16T17:14:59;0.60;;;0.60;;
52540;SDS011;56003;48.556;9.370;2022-10-16T17:17:25;0.70;;;0.50;;
52540;SDS011;56003;48.556;9.370;2022-10-16T17:19:51;0.67;;;0.30;;
52540;SDS011;56003;48.556;9.370;2022-10-16T17:22:16;0.47;;;0.43;;
52540;SDS011;56003;48.556;9.370;2022-10-16T17:24:42;0.50;;;0.47;;
52540;SDS011;56003;48.556;9.370;2022-10-16T17:27:08;0.60;;;0.60;;
52540;SDS011;56003;48.556;9.370;2022-10-16T17:29:34;1.07;;;0.67;;